sensor_id;sensor_type;location;lat;lon;timestamp;pressure;altitude;pressure_sealevel;temperature;humidity
71903;BME280;59778;50.310;18.780;2023-05-03T00:06:13;99380.50;;;12.10;100.00
71903;BME280;59778;50.310;18.780;2023-05-03T00:21:34;99370.53;;;12.03;100.00
71903;BME280;59778;50.310;18.780;2023-05-03T00:36:56;99367.63;;;12.19;100.00
71903;BME280;59778;50.310;18.780;2023-05-03T00:52:17;99364.47;;;12.01;100.00
71903;BME280;59778;50.310;18.780;2023-05-03T01:08:25;99368.94;;;11.94;100.00
71903;BME280;59778;50.310;18.780;2023-05-03T01:39:20;99383.94;;;12.19;100.00
71903;BME280;59778;50.310;18.780;2023-05-03T01:54:42;99393.25;;;12.24;100.00
71903;BME280;59778;50.310;18.780;2023-05-03T02:10:06;99383.28;;;12.17;100.00
71903;BME280;59778;50.310;18.780;2023-05-03T02:25:28;99391.09;;;12.05;100.00
71903;BME280;59778;50.310;18.780;2023-05-03T02:40:49;99400.13;;;11.91;100.00
71903;BME280;59778;50.310;18.780;2023-05-03T02:56:11;99410.41;;;11.66;100.00
71903;BME280;59778;50.310;18.780;2023-05-03T03:11:32;99415.09;;;11.58;100.00
71903;BME280;59778;50.310;18.780;2023-05-03T03:26:53;99423.22;;;11.43;100.00
71903;BME280;59778;50.310;18.780;2023-05-03T03:42:14;99433.00;;;11.38;100.00
71903;BME280;59778;50.310;18.780;2023-05-03T03:57:36;99442.03;;;11.30;100.00
71903;BME280;59778;50.310;18.780;2023-05-03T04:12:57;99465.28;;;11.18;100.00
71903;BME280;59778;50.310;18.780;2023-05-03T04:28:18;99481.72;;;11.02;100.00
71903;BME280;59778;50.310;18.780;2023-05-03T04:43:41;99498.06;;;10.94;100.00
71903;BME280;59778;50.310;18.780;2023-05-03T04:59:03;99521.88;;;10.83;100.00
71903;BME280;59778;50.310;18.780;2023-05-03T05:14:25;99541.28;;;10.80;100.00
71903;BME280;59778;50.310;18.780;2023-05-03T05:29:48;99552.88;;;10.74;100.00
71903;BME280;59778;50.310;18.780;2023-05-03T05:45:10;99572.56;;;10.68;99.75
71903;BME280;59778;50.310;18.780;2023-05-03T06:00:31;99570.56;;;10.62;97.19
71903;BME280;59778;50.310;18.780;2023-05-03T06:15:53;99601.50;;;10.53;95.95
71903;BME280;59778;50.310;18.780;2023-05-03T06:31:14;99597.00;;;10.76;92.53
71903;BME280;59778;50.310;18.780;2023-05-03T06:46:35;99610.06;;;11.43;90.88
71903;BME280;59778;50.310;18.780;2023-05-03T07:01:56;99605.84;;;12.08;85.61
71903;BME280;59778;50.310;18.780;2023-05-03T07:17:18;99607.66;;;11.93;82.66
71903;BME280;59778;50.310;18.780;2023-05-03T07:32:39;99620.88;;;12.34;81.09
71903;BME280;59778;50.310;18.780;2023-05-03T07:48:01;99633.53;;;12.12;80.34
71903;BME280;59778;50.310;18.780;2023-05-03T08:03:24;99638.69;;;12.07;79.72
71903;BME280;59778;50.310;18.780;2023-05-03T08:18:45;99637.72;;;12.00;79.41
71903;BME280;59778;50.310;18.780;2023-05-03T08:34:07;99644.38;;;12.20;79.99
71903;BME280;59778;50.310;18.780;2023-05-03T08:49:32;99673.56;;;12.26;76.82
71903;BME280;59778;50.310;18.780;2023-05-03T09:04:55;99671.94;;;12.17;75.08
71903;BME280;59778;50.310;18.780;2023-05-03T09:20:33;99664.78;;;12.39;75.91
71903;BME280;59778;50.310;18.780;2023-05-03T09:36:00;99672.88;;;12.47;76.15
71903;BME280;59778;50.310;18.780;2023-05-03T09:51:22;99676.41;;;12.33;74.71
71903;BME280;59778;50.310;18.780;2023-05-03T10:06:46;99675.78;;;12.45;72.29
71903;BME280;59778;50.310;18.780;2023-05-03T10:22:09;99678.16;;;12.63;70.23
71903;BME280;59778;50.310;18.780;2023-05-03T10:37:32;99679.97;;;12.85;70.19
71903;BME280;59778;50.310;18.780;2023-05-03T10:52:55;99677.66;;;13.47;67.87
71903;BME280;59778;50.310;18.780;2023-05-03T11:08:18;99671.97;;;13.63;65.07
71903;BME280;59778;50.310;18.780;2023-05-03T11:23:40;99668.50;;;13.69;65.01
71903;BME280;59778;50.310;18.780;2023-05-03T11:39:02;99668.44;;;13.84;63.91
71903;BME280;59778;50.310;18.780;2023-05-03T11:54:26;99668.44;;;13.48;64.67
71903;BME280;59778;50.310;18.780;2023-05-03T12:09:47;99659.63;;;13.32;66.08
71903;BME280;59778;50.310;18.780;2023-05-03T12:25:09;99657.72;;;13.11;67.22
71903;BME280;59778;50.310;18.780;2023-05-03T12:40:30;99646.47;;;13.92;64.63
71903;BME280;59778;50.310;18.780;2023-05-03T12:55:52;99635.81;;;13.97;60.95
71903;BME280;59778;50.310;18.780;2023-05-03T13:11:14;99647.75;;;14.39;60.38
71903;BME280;59778;50.310;18.780;2023-05-03T13:26:36;99620.97;;;15.37;57.57
71903;BME280;59778;50.310;18.780;2023-05-03T13:41:58;99603.97;;;15.48;56.96
71903;BME280;59778;50.310;18.780;2023-05-03T13:57:19;99604.63;;;15.03;56.19
71903;BME280;59778;50.310;18.780;2023-05-03T14:12:41;99599.88;;;14.77;54.43
71903;BME280;59778;50.310;18.780;2023-05-03T14:28:03;99587.94;;;14.91;52.52
71903;BME280;59778;50.310;18.780;2023-05-03T14:43:25;99594.34;;;15.12;52.95
71903;BME280;59778;50.310;18.780;2023-05-03T14:58:48;99601.19;;;15.35;53.01
71903;BME280;59778;50.310;18.780;2023-05-03T15:14:10;99596.22;;;15.04;52.72
71903;BME280;59778;50.310;18.780;2023-05-03T15:29:31;99591.19;;;16.47;48.88
71903;BME280;59778;50.310;18.780;2023-05-03T15:44:52;99601.56;;;15.26;50.10
71903;BME280;59778;50.310;18.780;2023-05-03T16:00:15;99585.81;;;14.87;51.35
71903;BME280;59778;50.310;18.780;2023-05-03T16:15:37;99587.59;;;14.67;51.11
71903;BME280;59778;50.310;18.780;2023-05-03T16:30:58;99591.44;;;14.38;51.79
71903;BME280;59778;50.310;18.780;2023-05-03T16:46:20;99586.41;;;14.20;53.47
71903;BME280;59778;50.310;18.780;2023-05-03T17:01:41;99588.97;;;14.22;54.91
71903;BME280;59778;50.310;18.780;2023-05-03T17:17:03;99599.63;;;14.16;52.85
71903;BME280;59778;50.310;18.780;2023-05-03T17:32:24;99610.78;;;13.94;54.24
71903;BME280;59778;50.310;18.780;2023-05-03T17:47:45;99620.34;;;13.62;55.71
71903;BME280;59778;50.310;18.780;2023-05-03T18:03:07;99614.53;;;13.50;58.40
71903;BME280;59778;50.310;18.780;2023-05-03T18:18:30;99620.75;;;12.79;61.27
71903;BME280;59778;50.310;18.780;2023-05-03T18:33:52;99633.75;;;11.88;67.65
71903;BME280;59778;50.310;18.780;2023-05-03T18:49:13;99650.44;;;10.84;74.39
71903;BME280;59778;50.310;18.780;2023-05-03T19:04:34;99648.22;;;10.16;76.12
71903;BME280;59778;50.310;18.780;2023-05-03T19:19:56;99647.50;;;9.58;79.46
71903;BME280;59778;50.310;18.780;2023-05-03T19:35:17;99647.03;;;9.78;72.29
71903;BME280;59778;50.310;18.780;2023-05-03T19:50:38;99654.47;;;9.92;70.88
71903;BME280;59778;50.310;18.780;2023-05-03T20:06:00;99654.47;;;10.09;68.16
71903;BME280;59778;50.310;18.780;2023-05-03T20:21:21;99648.72;;;9.87;70.67
71903;BME280;59778;50.310;18.780;2023-05-03T20:36:42;99648.50;;;9.48;72.70
71903;BME280;59778;50.310;18.780;2023-05-03T20:52:04;99651.31;;;9.15;73.81
71903;BME280;59778;50.310;18.780;2023-05-03T21:07:25;99659.44;;;8.21;77.96
71903;BME280;59778;50.310;18.780;2023-05-03T21:22:48;99650.72;;;8.10;76.33
71903;BME280;59778;50.310;18.780;2023-05-03T21:38:09;99651.72;;;8.09;76.93
71903;BME280;59778;50.310;18.780;2023-05-03T21:53:30;99650.06;;;7.72;79.02
71903;BME280;59778;50.310;18.780;2023-05-03T22:08:53;99654.34;;;7.12;83.74
71903;BME280;59778;50.310;18.780;2023-05-03T22:24:14;99662.09;;;6.70;85.74
71903;BME280;59778;50.310;18.780;2023-05-03T22:39:36;99640.00;;;6.57;87.67
71903;BME280;59778;50.310;18.780;2023-05-03T22:54:57;99650.00;;;6.47;87.08
71903;BME280;59778;50.310;18.780;2023-05-03T23:10:20;99634.97;;;6.35;87.32
71903;BME280;59778;50.310;18.780;2023-05-03T23:25:41;99629.03;;;6.31;87.97
71903;BME280;59778;50.310;18.780;2023-05-03T23:41:03;99637.31;;;6.20;87.97
71903;BME280;59778;50.310;18.780;2023-05-03T23:56:24;99624.38;;;6.24;87.17
